createdAt,value
2023-02-15T00:00:00.961Z,0.50
2023-02-15T00:02:27.797Z,0.75
2023-02-15T00:04:57.023Z,0.60
2023-02-15T00:07:23.831Z,0.57
2023-02-15T00:09:50.826Z,0.50
2023-02-15T00:12:17.756Z,0.63
2023-02-15T00:14:44.950Z,0.63
2023-02-15T00:17:11.899Z,0.47
2023-02-15T00:19:38.751Z,0.50
2023-02-15T00:22:05.497Z,0.73
2023-02-15T00:24:32.274Z,0.50
2023-02-15T00:26:59.428Z,0.50
2023-02-15T00:29:26.582Z,0.50
2023-02-15T00:31:53.606Z,0.80
2023-02-15T00:34:23.721Z,0.40
2023-02-15T00:36:50.667Z,0.50
2023-02-15T00:39:18.421Z,0.40
2023-02-15T00:41:46.379Z,0.50
2023-02-15T00:44:13.758Z,0.50
2023-02-15T00:46:40.913Z,0.50
2023-02-15T00:49:10.533Z,0.55
2023-02-15T00:51:38.334Z,0.70
2023-02-15T00:54:05.684Z,0.70
2023-02-15T00:56:32.605Z,0.50
2023-02-15T00:58:59.479Z,0.70
2023-02-15T01:01:26.958Z,0.60
2023-02-15T01:03:54.316Z,0.50
2023-02-15T01:06:21.293Z,0.70
2023-02-15T01:08:48.658Z,0.57
2023-02-15T01:11:24.701Z,0.50
2023-02-15T01:13:57.075Z,0.50
2023-02-15T01:16:27.247Z,0.47
2023-02-15T01:18:55.606Z,0.50
2023-02-15T01:21:24.382Z,0.55
2023-02-15T01:23:51.435Z,0.60
2023-02-15T01:26:18.706Z,0.55
2023-02-15T01:28:46.164Z,0.60
2023-02-15T01:31:18.271Z,0.90
2023-02-15T01:33:46.820Z,0.68
2023-02-15T01:36:14.152Z,0.60
2023-02-15T01:38:41.233Z,0.50
2023-02-15T01:41:20.910Z,0.70
2023-02-15T01:43:56.069Z,0.80
2023-02-15T01:46:28.381Z,0.57
2023-02-15T01:49:02.951Z,0.68
2023-02-15T01:51:34.089Z,0.70
2023-02-15T01:54:16.318Z,0.73
2023-02-15T01:56:46.196Z,0.80
2023-02-15T01:59:17.299Z,0.70
2023-02-15T02:01:45.004Z,0.60
2023-02-15T02:04:24.176Z,0.60
2023-02-15T02:06:51.924Z,0.63
2023-02-15T02:09:18.857Z,0.60
2023-02-15T02:11:48.687Z,0.93
2023-02-15T02:14:16.807Z,0.88
2023-02-15T02:16:55.757Z,0.70
2023-02-15T02:19:40.814Z,0.65
2023-02-15T02:22:33.617Z,0.70
2023-02-15T02:25:35.497Z,0.60
2023-02-15T02:28:35.587Z,0.60
2023-02-15T02:31:08.478Z,0.50
2023-02-15T02:33:46.162Z,0.60
2023-02-15T02:36:36.781Z,0.60
2023-02-15T02:41:53.219Z,0.50
2023-02-15T02:44:32.452Z,0.60
2023-02-15T02:47:27.756Z,0.57
2023-02-15T02:50:01.555Z,0.60
2023-02-15T02:52:39.797Z,0.60
2023-02-15T02:55:20.982Z,0.57
2023-02-15T02:57:56.703Z,0.60
2023-02-15T03:00:26.760Z,0.55
2023-02-15T03:02:59.460Z,0.68
2023-02-15T03:05:30.763Z,0.60
2023-02-15T03:08:02.168Z,0.75
2023-02-15T03:10:30.581Z,0.80
2023-02-15T03:12:57.508Z,0.85
2023-02-15T03:15:50.569Z,0.70
2023-02-15T03:18:20.991Z,0.80
2023-02-15T03:20:48.952Z,0.70
2023-02-15T03:23:21.600Z,0.90
2023-02-15T03:25:57.649Z,0.98
2023-02-15T03:28:43.865Z,0.85
2023-02-15T03:31:14.367Z,0.80
2023-02-15T03:36:20.147Z,0.88
2023-02-15T03:39:14.013Z,0.85
2023-02-15T03:41:47.392Z,0.80
2023-02-15T03:44:24.569Z,0.90
2023-02-15T03:47:01.747Z,1.00
2023-02-15T03:50:27.215Z,0.90
2023-02-15T03:52:56.564Z,0.80
2023-02-15T03:55:23.538Z,0.75
2023-02-15T03:58:09.468Z,0.80
2023-02-15T04:00:58.939Z,0.70
2023-02-15T04:03:41.847Z,0.77
2023-02-15T04:06:08.752Z,0.90
2023-02-15T04:08:54.453Z,0.80
2023-02-15T04:11:21.323Z,0.80
2023-02-15T04:13:48.113Z,0.95
2023-02-15T04:16:14.957Z,1.38
2023-02-15T04:19:02.169Z,1.70
2023-02-15T04:21:50.110Z,3.30
2023-02-15T04:24:36.109Z,3.70
2023-02-15T04:27:04.567Z,3.50
2023-02-15T04:29:32.296Z,3.03
2023-02-15T04:32:01.828Z,2.90
2023-02-15T04:34:28.681Z,2.90
2023-02-15T04:36:55.705Z,2.72
2023-02-15T04:39:22.507Z,2.70
2023-02-15T04:41:49.458Z,2.63
2023-02-15T04:44:16.488Z,3.05
2023-02-15T04:46:43.283Z,3.72
2023-02-15T04:49:10.600Z,4.90
2023-02-15T04:51:37.649Z,4.88
2023-02-15T04:54:04.661Z,4.38
2023-02-15T04:56:32.233Z,4.60
2023-02-15T04:58:59.141Z,5.57
2023-02-15T05:01:26.055Z,3.67
2023-02-15T05:03:52.970Z,3.22
2023-02-15T05:06:19.908Z,4.70
2023-02-15T05:08:46.716Z,3.00
2023-02-15T05:11:13.639Z,3.00
2023-02-15T05:13:41.137Z,3.00
2023-02-15T05:16:08.026Z,3.08
2023-02-15T05:18:34.960Z,3.05
2023-02-15T05:21:01.758Z,1.45
2023-02-15T05:23:28.587Z,1.15
2023-02-15T05:26:13.947Z,1.10
2023-02-15T05:28:40.808Z,1.25
2023-02-15T05:31:20.613Z,1.10
2023-02-15T05:33:47.592Z,1.17
2023-02-15T05:36:16.763Z,0.98
2023-02-15T05:38:43.574Z,0.95
2023-02-15T05:41:11.528Z,0.85
2023-02-15T05:43:39.175Z,1.00
2023-02-15T05:46:06.719Z,0.80
2023-02-15T05:48:34.138Z,1.35
2023-02-15T05:51:06.963Z,0.90
2023-02-15T05:53:36.158Z,0.90
2023-02-15T05:56:04.369Z,1.00
2023-02-15T05:58:34.004Z,1.20
2023-02-15T06:01:01.042Z,1.00
2023-02-15T06:03:30.661Z,0.88
2023-02-15T06:05:57.512Z,0.90
2023-02-15T06:08:24.312Z,0.90
2023-02-15T06:10:51.302Z,1.05
2023-02-15T06:13:18.152Z,1.00
2023-02-15T06:15:45.087Z,1.02
2023-02-15T06:18:11.998Z,1.10
2023-02-15T06:20:39.218Z,1.50
2023-02-15T06:23:06.125Z,1.73
2023-02-15T06:25:35.238Z,2.38
2023-02-15T06:28:03.131Z,2.58
2023-02-15T06:30:31.303Z,2.80
2023-02-15T06:32:58.287Z,2.80
2023-02-15T06:35:25.516Z,2.40
2023-02-15T06:37:52.488Z,2.20
2023-02-15T06:40:19.631Z,1.90
2023-02-15T06:42:47.000Z,2.20
2023-02-15T06:45:14.387Z,1.92
2023-02-15T06:47:41.322Z,1.83
2023-02-15T06:50:09.293Z,1.80
2023-02-15T06:52:36.230Z,1.83
2023-02-15T06:55:06.183Z,1.58
2023-02-15T06:57:34.199Z,1.92
2023-02-15T07:00:01.262Z,1.75
2023-02-15T07:02:28.095Z,1.90
2023-02-15T07:04:55.067Z,1.90
2023-02-15T07:07:21.937Z,2.15
2023-02-15T07:09:48.730Z,2.05
2023-02-15T07:12:34.337Z,2.00
2023-02-15T07:15:01.107Z,1.98
2023-02-15T07:17:35.934Z,1.90
2023-02-15T07:20:05.742Z,1.92
2023-02-15T07:22:35.066Z,2.10
2023-02-15T07:25:08.206Z,2.00
2023-02-15T07:27:35.487Z,2.22
2023-02-15T07:30:02.833Z,2.10
2023-02-15T07:32:31.385Z,1.80
2023-02-15T07:34:59.448Z,1.83
2023-02-15T07:37:27.028Z,1.67
2023-02-15T07:39:54.000Z,2.00
2023-02-15T07:42:22.090Z,2.20
2023-02-15T07:44:50.339Z,1.60
2023-02-15T07:47:18.112Z,1.83
2023-02-15T07:49:46.165Z,1.70
2023-02-15T07:52:13.214Z,1.55
2023-02-15T07:54:40.335Z,1.50
2023-02-15T07:57:07.718Z,1.48
2023-02-15T07:59:34.467Z,1.50
2023-02-15T08:02:01.277Z,1.63
2023-02-15T08:04:28.131Z,1.42
2023-02-15T08:06:55.626Z,1.80
2023-02-15T08:09:22.927Z,1.40
2023-02-15T08:11:49.998Z,1.45
2023-02-15T08:14:19.594Z,1.33
2023-02-15T08:16:50.657Z,1.70
2023-02-15T08:19:33.836Z,1.60
2023-02-15T08:22:03.290Z,1.60
2023-02-15T08:24:32.754Z,1.52
2023-02-15T08:26:59.933Z,1.53
2023-02-15T08:29:29.507Z,1.70
2023-02-15T08:32:05.428Z,1.88
2023-02-15T08:34:36.830Z,1.67
2023-02-15T08:37:04.052Z,1.85
2023-02-15T08:39:30.760Z,2.00
2023-02-15T08:41:57.676Z,2.30
2023-02-15T08:44:24.461Z,3.20
2023-02-15T08:46:51.794Z,4.38
2023-02-15T08:49:20.970Z,5.38
2023-02-15T08:51:49.894Z,5.05
2023-02-15T08:54:21.618Z,3.28
2023-02-15T08:56:49.057Z,4.30
2023-02-15T08:59:21.228Z,4.20
2023-02-15T09:01:50.192Z,4.70
2023-02-15T09:04:17.669Z,5.05
2023-02-15T09:06:48.136Z,4.97
2023-02-15T09:09:16.098Z,3.85
2023-02-15T09:11:45.023Z,3.60
2023-02-15T09:14:15.431Z,3.50
2023-02-15T09:16:49.652Z,3.75
2023-02-15T09:19:20.887Z,3.30
2023-02-15T09:21:47.760Z,2.85
2023-02-15T09:24:16.987Z,2.55
2023-02-15T09:26:46.251Z,2.15
2023-02-15T09:29:13.985Z,2.92
2023-02-15T09:31:45.475Z,1.98
2023-02-15T09:34:18.109Z,1.77
2023-02-15T09:36:45.818Z,1.63
2023-02-15T09:39:20.099Z,1.60
2023-02-15T09:41:53.993Z,1.50
2023-02-15T09:44:26.743Z,1.40
2023-02-15T09:47:27.510Z,1.40
2023-02-15T09:50:07.477Z,1.30
2023-02-15T09:52:40.247Z,1.25
2023-02-15T09:55:32.673Z,1.40
2023-02-15T09:58:16.709Z,1.88
2023-02-15T10:01:05.610Z,1.35
2023-02-15T10:04:25.556Z,1.77
2023-02-15T10:07:09.434Z,1.40
2023-02-15T10:09:51.189Z,1.27
2023-02-15T10:12:17.924Z,1.30
2023-02-15T10:14:53.632Z,1.42
2023-02-15T10:17:39.277Z,1.10
2023-02-15T10:20:14.957Z,1.30
2023-02-15T10:22:41.768Z,1.98
2023-02-15T10:25:43.149Z,1.20
2023-02-15T10:28:24.170Z,1.40
2023-02-15T10:30:54.553Z,1.40
2023-02-15T10:36:03.627Z,1.42
2023-02-15T10:38:52.049Z,1.25
2023-02-15T10:41:27.693Z,1.20
2023-02-15T10:44:09.413Z,1.10
2023-02-15T10:46:48.034Z,1.38
2023-02-15T10:49:56.257Z,1.20
2023-02-15T10:53:01.265Z,1.30
2023-02-15T10:55:49.319Z,1.40
2023-02-15T10:58:34.430Z,1.23
2023-02-15T11:01:08.890Z,1.20
2023-02-15T11:03:41.504Z,1.30
2023-02-15T11:06:12.743Z,1.20
2023-02-15T11:08:47.449Z,1.20
2023-02-15T11:11:25.879Z,1.15
2023-02-15T11:13:59.848Z,1.00
2023-02-15T11:16:29.060Z,1.10
2023-02-15T11:19:01.497Z,1.10
2023-02-15T11:21:40.125Z,1.00
2023-02-15T11:24:28.695Z,0.90
2023-02-15T11:27:06.649Z,1.10
2023-02-15T11:29:39.679Z,0.90
2023-02-15T11:32:19.498Z,0.80
2023-02-15T11:34:55.804Z,1.00
2023-02-15T11:37:33.533Z,1.30
2023-02-15T11:40:02.590Z,1.00
2023-02-15T11:42:32.486Z,1.00
2023-02-15T11:45:20.742Z,0.90
2023-02-15T11:47:47.478Z,0.93
2023-02-15T11:50:24.621Z,0.73
2023-02-15T11:52:55.719Z,0.80
2023-02-15T11:55:25.033Z,1.00
2023-02-15T11:57:56.717Z,0.70
2023-02-15T12:00:43.289Z,0.70
2023-02-15T12:03:40.338Z,0.80
2023-02-15T12:06:16.155Z,0.90
2023-02-15T12:08:48.865Z,1.00
2023-02-15T12:11:25.594Z,4.82
2023-02-15T12:14:02.380Z,1.23
2023-02-15T12:16:32.754Z,1.60
2023-02-15T12:21:40.721Z,2.20
2023-02-15T12:24:22.364Z,2.58
2023-02-15T12:27:05.268Z,2.65
2023-02-15T12:29:40.410Z,2.67
2023-02-15T12:32:12.640Z,2.75
2023-02-15T12:34:42.250Z,2.00
2023-02-15T12:37:16.447Z,2.30
2023-02-15T12:39:58.497Z,2.80
2023-02-15T12:42:26.421Z,2.85
2023-02-15T12:45:02.843Z,2.90
2023-02-15T12:47:31.842Z,3.00
2023-02-15T12:50:12.163Z,2.70
2023-02-15T12:52:40.195Z,1.63
2023-02-15T12:55:19.148Z,2.55
2023-02-15T12:57:48.093Z,2.60
2023-02-15T13:00:21.790Z,2.40
2023-02-15T13:02:55.061Z,1.92
2023-02-15T13:05:28.503Z,1.30
2023-02-15T13:07:57.858Z,1.25
2023-02-15T13:10:30.185Z,1.30
2023-02-15T13:12:58.727Z,2.05
2023-02-15T13:15:38.301Z,1.83
2023-02-15T13:18:10.239Z,1.83
2023-02-15T13:20:38.614Z,2.28
2023-02-15T13:23:25.892Z,2.65
2023-02-15T13:25:52.976Z,2.15
2023-02-15T13:28:23.803Z,1.80
2023-02-15T13:30:51.362Z,2.60
2023-02-15T13:33:37.903Z,2.30
2023-02-15T13:36:15.698Z,2.38
2023-02-15T13:38:52.949Z,2.50
2023-02-15T13:41:42.974Z,2.40
2023-02-15T13:44:31.785Z,2.00
2023-02-15T13:47:01.414Z,2.00
2023-02-15T13:49:37.554Z,1.60
2023-02-15T13:52:24.718Z,1.67
2023-02-15T13:54:57.333Z,1.50
2023-02-15T13:57:42.851Z,1.90
2023-02-15T14:00:15.701Z,1.90
2023-02-15T14:02:57.682Z,1.90
2023-02-15T14:06:00.493Z,2.58
2023-02-15T14:08:39.357Z,2.13
2023-02-15T14:11:12.022Z,1.80
2023-02-15T14:14:12.925Z,1.70
2023-02-15T14:17:07.845Z,1.50
2023-02-15T14:19:46.693Z,1.70
2023-02-15T14:22:26.979Z,1.70
2023-02-15T14:27:35.178Z,1.55
2023-02-15T14:30:06.217Z,1.40
2023-02-15T14:32:33.698Z,1.30
2023-02-15T14:35:03.713Z,1.45
2023-02-15T14:37:52.725Z,1.40
2023-02-15T14:41:03.607Z,1.10
2023-02-15T14:44:01.594Z,1.40
2023-02-15T14:46:37.926Z,1.30
2023-02-15T14:49:15.505Z,1.20
2023-02-15T14:51:46.302Z,1.50
2023-02-15T14:54:18.886Z,1.50
2023-02-15T14:56:47.403Z,1.50
2023-02-15T14:59:17.327Z,1.30
2023-02-15T15:01:59.759Z,1.25
2023-02-15T15:04:34.233Z,1.58
2023-02-15T15:07:09.426Z,1.55
2023-02-15T15:09:41.968Z,1.52
2023-02-15T15:12:34.840Z,1.50
2023-02-15T15:15:02.276Z,1.50
2023-02-15T15:17:35.196Z,1.60
2023-02-15T15:20:26.512Z,1.60
2023-02-15T15:23:15.759Z,1.50
2023-02-15T15:25:42.605Z,1.90
2023-02-15T15:28:09.514Z,1.73
2023-02-15T15:30:36.243Z,1.70
2023-02-15T15:33:36.676Z,1.80
2023-02-15T15:36:11.152Z,1.40
2023-02-15T15:39:20.028Z,1.60
2023-02-15T15:42:10.718Z,1.60
2023-02-15T15:45:15.136Z,1.55
2023-02-15T15:48:09.502Z,1.77
2023-02-15T15:50:41.382Z,1.60
2023-02-15T15:53:24.415Z,1.70
2023-02-15T15:55:55.934Z,1.95
2023-02-15T15:58:24.697Z,1.70
2023-02-15T16:02:28.570Z,1.90
2023-02-15T16:04:55.261Z,1.70
2023-02-15T16:07:27.015Z,1.63
2023-02-15T16:09:59.399Z,1.70
2023-02-15T16:12:29.479Z,2.10
2023-02-15T16:14:57.723Z,4.05
2023-02-15T16:17:32.737Z,3.97
2023-02-15T16:20:08.503Z,2.50
2023-02-15T16:22:35.957Z,1.90
2023-02-15T16:25:14.656Z,1.95
2023-02-15T16:27:45.880Z,2.10
2023-02-15T16:30:32.371Z,2.00
2023-02-15T16:33:07.463Z,2.00
2023-02-15T16:35:36.564Z,2.33
2023-02-15T16:38:04.805Z,3.38
2023-02-15T16:40:48.705Z,2.40
2023-02-15T16:43:21.942Z,1.92
2023-02-15T16:45:49.047Z,2.17
2023-02-15T16:48:24.722Z,2.00
2023-02-15T16:50:57.561Z,2.03
2023-02-15T16:53:28.730Z,1.98
2023-02-15T16:55:59.858Z,1.85
2023-02-15T16:58:37.011Z,2.03
2023-02-15T17:01:07.457Z,2.10
2023-02-15T17:03:37.466Z,2.00
2023-02-15T17:06:17.941Z,2.05
2023-02-15T17:08:45.776Z,2.05
2023-02-15T17:11:14.415Z,2.13
2023-02-15T17:14:07.756Z,1.95
2023-02-15T17:16:37.497Z,2.03
2023-02-15T17:19:15.424Z,3.22
2023-02-15T17:21:47.358Z,4.43
2023-02-15T17:24:32.957Z,3.08
2023-02-15T17:27:44.740Z,2.45
2023-02-15T17:30:22.459Z,2.20
2023-02-15T17:32:58.936Z,2.42
2023-02-15T17:35:28.071Z,2.50
2023-02-15T17:38:19.281Z,3.05
2023-02-15T17:40:46.382Z,3.20
2023-02-15T17:43:13.415Z,3.55
2023-02-15T17:45:50.202Z,4.28
2023-02-15T17:48:33.296Z,4.45
2023-02-15T17:51:05.864Z,4.40
2023-02-15T17:53:35.863Z,4.55
2023-02-15T17:56:10.941Z,5.80
2023-02-15T17:58:40.529Z,5.60
2023-02-15T18:01:38.320Z,6.10
2023-02-15T18:04:27.240Z,6.53
2023-02-15T18:07:13.228Z,5.97
2023-02-15T18:09:58.618Z,6.07
2023-02-15T18:12:28.126Z,4.40
2023-02-15T18:14:56.327Z,3.87
2023-02-15T18:17:33.672Z,3.80
2023-02-15T18:20:05.514Z,3.08
2023-02-15T18:22:33.283Z,3.13
2023-02-15T18:25:00.387Z,2.95
2023-02-15T18:27:27.235Z,3.05
2023-02-15T18:29:54.064Z,2.92
2023-02-15T18:32:35.294Z,2.90
2023-02-15T18:35:05.208Z,2.83
2023-02-15T18:37:33.419Z,2.92
2023-02-15T18:40:03.980Z,3.08
2023-02-15T18:42:34.332Z,3.20
2023-02-15T18:45:13.212Z,2.88
2023-02-15T18:47:40.206Z,3.25
2023-02-15T18:50:08.270Z,3.10
2023-02-15T18:52:38.153Z,3.20
2023-02-15T18:55:16.996Z,3.30
2023-02-15T18:57:46.041Z,3.33
2023-02-15T19:00:25.499Z,3.35
2023-02-15T19:02:54.234Z,3.67
2023-02-15T19:05:22.890Z,3.47
2023-02-15T19:07:51.470Z,3.20
2023-02-15T19:10:22.233Z,3.10
2023-02-15T19:12:50.047Z,2.95
2023-02-15T19:15:19.151Z,3.10
2023-02-15T19:17:46.431Z,3.10
2023-02-15T19:20:35.571Z,2.80
2023-02-15T19:23:03.208Z,3.30
2023-02-15T19:25:32.372Z,3.05
2023-02-15T19:27:59.209Z,3.08
2023-02-15T19:30:29.813Z,2.95
2023-02-15T19:32:58.046Z,3.50
2023-02-15T19:35:38.412Z,3.45
2023-02-15T19:38:12.654Z,3.47
2023-02-15T19:40:39.940Z,3.65
2023-02-15T19:43:18.195Z,3.60
2023-02-15T19:45:45.823Z,3.63
2023-02-15T19:48:14.911Z,3.80
2023-02-15T19:50:45.152Z,3.97
2023-02-15T19:53:21.050Z,3.92
2023-02-15T19:55:48.328Z,3.67
2023-02-15T19:58:15.423Z,4.07
2023-02-15T20:00:42.231Z,4.40
2023-02-15T20:03:09.166Z,4.30
2023-02-15T20:05:39.569Z,4.25
2023-02-15T20:08:10.094Z,4.45
2023-02-15T20:10:36.927Z,4.63
2023-02-15T20:13:03.724Z,4.68
2023-02-15T20:15:35.166Z,4.15
2023-02-15T20:18:04.143Z,3.90
2023-02-15T20:20:38.557Z,3.70
2023-02-15T20:23:07.004Z,3.90
2023-02-15T20:25:34.217Z,2.90
2023-02-15T20:28:01.579Z,3.15
2023-02-15T20:30:31.536Z,3.03
2023-02-15T20:32:58.856Z,3.20
2023-02-15T20:35:28.714Z,3.20
2023-02-15T20:37:59.591Z,2.80
2023-02-15T20:40:32.837Z,3.20
2023-02-15T20:43:00.476Z,3.17
2023-02-15T20:45:30.363Z,3.20
2023-02-15T20:47:57.660Z,3.20
2023-02-15T20:50:33.054Z,3.00
2023-02-15T20:53:02.784Z,3.70
2023-02-15T20:55:31.582Z,3.38
2023-02-15T20:57:59.375Z,3.30
2023-02-15T21:00:31.134Z,3.35
2023-02-15T21:03:00.013Z,3.05
2023-02-15T21:05:35.114Z,3.35
2023-02-15T21:08:02.459Z,3.13
2023-02-15T21:10:32.338Z,3.72
2023-02-15T21:13:01.202Z,3.15
2023-02-15T21:15:39.686Z,3.08
2023-02-15T21:18:15.558Z,3.10
2023-02-15T21:20:47.780Z,3.30
2023-02-15T21:23:17.114Z,3.10
2023-02-15T21:25:44.805Z,3.10
2023-02-15T21:28:18.353Z,3.13
2023-02-15T21:30:47.941Z,3.20
2023-02-15T21:33:15.131Z,3.33
2023-02-15T21:35:44.050Z,3.30
2023-02-15T21:38:16.946Z,3.30
2023-02-15T21:40:44.629Z,3.38
2023-02-15T21:43:39.979Z,3.40
2023-02-15T21:46:34.494Z,3.33
2023-02-15T21:49:02.262Z,3.55
2023-02-15T21:51:48.780Z,3.28
2023-02-15T21:54:18.834Z,3.25
2023-02-15T21:56:48.368Z,3.28
2023-02-15T21:59:16.868Z,3.50
2023-02-15T22:01:51.163Z,3.70
2023-02-15T22:04:24.880Z,3.42
2023-02-15T22:06:51.993Z,3.40
2023-02-15T22:09:24.755Z,3.50
2023-02-15T22:11:52.259Z,3.50
2023-02-15T22:14:30.978Z,3.53
2023-02-15T22:16:57.739Z,3.30
2023-02-15T22:19:24.461Z,3.40
2023-02-15T22:21:52.558Z,3.72
2023-02-15T22:24:19.360Z,3.63
2023-02-15T22:26:46.275Z,3.40
2023-02-15T22:29:17.106Z,3.88
2023-02-15T22:31:44.528Z,3.83
2023-02-15T22:34:25.639Z,3.55
2023-02-15T22:36:52.589Z,3.55
2023-02-15T22:39:20.489Z,3.40
2023-02-15T22:41:47.226Z,3.38
2023-02-15T22:44:24.141Z,3.60
2023-02-15T22:46:52.208Z,3.60
2023-02-15T22:49:19.680Z,3.42
2023-02-15T22:51:49.257Z,3.75
2023-02-15T22:54:17.500Z,3.63
2023-02-15T22:56:50.974Z,3.70
2023-02-15T22:59:23.874Z,4.00
2023-02-15T23:01:51.054Z,3.85
2023-02-15T23:04:23.987Z,3.80
2023-02-15T23:06:53.286Z,3.58
2023-02-15T23:09:20.233Z,3.67
2023-02-15T23:11:48.475Z,3.80
2023-02-15T23:14:35.294Z,3.63
2023-02-15T23:17:02.398Z,3.65
2023-02-15T23:19:29.269Z,3.70
2023-02-15T23:21:56.184Z,4.00
2023-02-15T23:24:28.436Z,3.70
2023-02-15T23:27:16.257Z,3.72
2023-02-15T23:29:43.094Z,3.50
2023-02-15T23:32:13.406Z,3.90
2023-02-15T23:37:12.134Z,4.50
2023-02-15T23:40:17.548Z,4.07
2023-02-15T23:42:44.510Z,4.20
2023-02-15T23:45:22.985Z,4.60
2023-02-15T23:48:08.089Z,4.38
2023-02-15T23:50:34.999Z,4.53
2023-02-15T23:53:01.848Z,4.43
2023-02-15T23:55:38.026Z,4.45
2023-02-15T23:58:07.138Z,4.50
